Athens, West Virginia
Current Conditions -  °F | °C
As of 6:52 PM on Friday 31 Oct 2014 (Local Time) from KBLF Reporting Station
Light Rain Light Rain  
Wind Chill: 36°   Ceiling: 1100
Heat Index: 40°   Visibility: 10mi
Dew Point: 36°   Wind: 6mph
Humidity: 86%   Direction: 290°WNW
Pressure: 29.83"   Gusts: NA
Location:  37.42°N, 81.02°W
Report Text: KBLF 312252Z AUTO 29005KT 10SM -RA SCT007 OVC011 04/02 A2983 RMK AO2 SLP105 P0003 T00440022
Loading
Personal Weather Stations






























Interactive Weather Map
Tropical Storm Tracking
New forecast layout! Learn more

10-Day Weather Forecast

Advertisements
Track Severe Weather on mobile